Time;durP1;ratioP1;P1;durP2;ratioP2;P2;SDS_P1;SDS_P2;PMS_P1;PMS_P2;Temp;Humidity;BMP_temperature;BMP_pressure;BME280_temperature;BME280_humidity;BME280_pressure;Samples;Min_cycle;Max_cycle;Signal;HPM_P1;HPM_P2
2022/12/05 00:01:18;;;;;;;42.13;22.27;;;3.20;99.90;;;;;;5094476;28;20214;-68
2022/12/05 00:03:46;;;;;;;33.75;20.35;;;3.30;99.90;;;;;;5093314;28;20203;-68
2022/12/05 00:06:15;;;;;;;34.30;19.08;;;3.20;99.90;;;;;;5094591;28;20196;-68
2022/12/05 00:08:45;;;;;;;29.80;16.95;;;3.20;99.90;;;;;;5091789;28;20196;-68
2022/12/05 00:11:14;;;;;;;36.05;18.65;;;3.20;99.90;;;;;;5075087;28;20196;-67
2022/12/05 00:13:43;;;;;;;38.80;22.75;;;3.20;99.90;;;;;;5075187;28;20199;-67
2022/12/05 00:16:12;;;;;;;34.95;19.45;;;3.30;99.90;;;;;;5107684;28;20683;-67
2022/12/05 00:18:41;;;;;;;37.67;18.85;;;3.30;99.90;;;;;;5089874;28;20204;-69
2022/12/05 00:21:13;;;;;;;35.95;20.95;;;3.30;99.90;;;;;;5074562;28;20204;-67
2022/12/05 00:23:41;;;;;;;34.45;20.33;;;3.30;99.90;;;;;;5076461;28;20223;-67
2022/12/05 00:26:11;;;;;;;34.33;20.35;;;3.30;99.90;;;;;;5074192;28;20236;-67
2022/12/05 00:28:40;;;;;;;32.10;18.75;;;3.30;99.90;;;;;;5078599;28;20200;-67
2022/12/05 00:31:11;;;;;;;32.53;20.00;;;3.40;99.90;;;;;;5088564;28;20553;-68
2022/12/05 00:33:39;;;;;;;33.55;19.60;;;3.30;99.90;;;;;;5085028;28;20191;-67
2022/12/05 00:36:10;;;;;;;32.00;18.80;;;3.30;99.90;;;;;;5086033;28;20561;-68
2022/12/05 00:38:38;;;;;;;29.50;17.25;;;3.30;99.90;;;;;;5075327;28;20207;-68
2022/12/05 00:41:08;;;;;;;45.28;23.42;;;3.30;99.90;;;;;;5087108;28;20204;-67
2022/12/05 00:43:38;;;;;;;40.75;22.98;;;3.30;99.90;;;;;;5094708;28;20225;-67
2022/12/05 00:46:08;;;;;;;40.05;19.65;;;3.30;99.90;;;;;;5076130;28;20211;-68
2022/12/05 00:48:36;;;;;;;32.38;18.98;;;3.30;99.90;;;;;;5094482;28;20566;-67
2022/12/05 00:51:06;;;;;;;32.28;18.60;;;3.40;99.90;;;;;;5094057;28;20199;-67
2022/12/05 00:53:35;;;;;;;32.20;19.13;;;3.30;99.90;;;;;;5079217;28;20199;-67
2022/12/05 00:56:04;;;;;;;31.67;17.75;;;3.30;99.90;;;;;;5073951;28;20650;-69
2022/12/05 00:58:32;;;;;;;31.40;17.77;;;3.30;99.90;;;;;;5074027;28;20199;-66
2022/12/05 01:01:07;;;;;;;27.80;17.20;;;3.30;99.90;;;;;;5073762;28;20261;-67
2022/12/05 01:03:35;;;;;;;34.03;17.48;;;3.30;99.90;;;;;;5079597;28;20206;-67
2022/12/05 01:06:04;;;;;;;30.08;17.33;;;3.20;99.90;;;;;;5078721;28;20196;-67
2022/12/05 01:08:33;;;;;;;29.67;17.48;;;3.20;99.90;;;;;;5073319;28;20211;-67
2022/12/05 01:11:01;;;;;;;29.30;18.10;;;3.30;99.90;;;;;;5080921;28;20257;-67
2022/12/05 01:13:30;;;;;;;31.30;17.65;;;3.30;99.90;;;;;;5073360;28;20204;-67
2022/12/05 01:15:58;;;;;;;34.75;17.70;;;3.30;99.90;;;;;;5073490;28;20269;-67
2022/12/05 01:18:28;;;;;;;29.70;18.70;;;3.30;99.90;;;;;;5073780;28;20202;-68
2022/12/05 01:20:56;;;;;;;27.55;17.08;;;3.40;99.90;;;;;;5082496;28;20247;-67
2022/12/05 01:23:24;;;;;;;30.23;18.08;;;3.40;99.90;;;;;;5089604;28;20215;-67
2022/12/05 01:25:52;;;;;;;32.25;17.77;;;3.40;99.90;;;;;;5090532;28;20628;-66
2022/12/05 01:28:21;;;;;;;31.38;17.30;;;3.30;99.90;;;;;;5073939;28;20204;-67
2022/12/05 01:30:50;;;;;;;32.67;18.88;;;3.30;99.90;;;;;;5057894;28;20577;-67
2022/12/05 01:33:18;;;;;;;29.00;17.15;;;3.30;99.90;;;;;;5096030;28;20192;-67
2022/12/05 01:35:47;;;;;;;33.20;18.27;;;3.30;99.90;;;;;;5075551;28;20222;-67
2022/12/05 01:38:15;;;;;;;34.80;17.85;;;3.30;99.90;;;;;;5092032;28;20200;-67
2022/12/05 01:40:43;;;;;;;31.08;17.77;;;3.30;99.90;;;;;;5094008;28;20203;-68
2022/12/05 01:43:14;;;;;;;29.27;16.88;;;3.30;99.90;;;;;;5094475;28;20227;-68
2022/12/05 01:45:44;;;;;;;32.05;18.35;;;3.30;99.90;;;;;;5093417;28;20188;-68
2022/12/05 01:48:17;;;;;;;33.25;18.50;;;3.40;99.90;;;;;;5093681;28;20689;-67
2022/12/05 01:50:48;;;;;;;30.52;17.77;;;3.30;99.90;;;;;;5075222;28;20192;-67
2022/12/05 01:53:17;;;;;;;40.42;20.23;;;3.40;99.90;;;;;;5073293;28;20184;-67
2022/12/05 01:55:47;;;;;;;37.05;20.23;;;3.40;99.90;;;;;;5073066;28;20211;-67
2022/12/05 01:58:16;;;;;;;32.05;18.10;;;3.40;99.90;;;;;;5073389;28;20203;-68
2022/12/05 02:00:45;;;;;;;31.95;18.10;;;3.50;99.90;;;;;;5072560;28;20210;-67
2022/12/05 02:03:18;;;;;;;29.00;17.50;;;3.40;99.90;;;;;;5072634;28;20214;-68
2022/12/05 02:05:50;;;;;;;27.48;17.55;;;3.40;99.90;;;;;;5094169;28;20646;-67
2022/12/05 02:08:19;;;;;;;34.35;18.00;;;3.40;99.90;;;;;;5072715;28;20206;-66
2022/12/05 02:10:50;;;;;;;38.33;18.50;;;3.50;99.90;;;;;;5076346;28;20203;-66
2022/12/05 02:13:51;;;;;;;38.35;18.90;;;3.30;99.90;;;;;;5109767;28;20247;-66
2022/12/05 02:16:29;;;;;;;38.60;19.08;;;3.20;99.90;;;;;;5074233;28;20199;-67
2022/12/05 02:19:07;;;;;;;36.35;20.35;;;3.20;99.90;;;;;;5084341;28;20198;-66
2022/12/05 02:22:01;;;;;;;43.63;20.98;;;3.10;99.90;;;;;;5091351;28;20564;-66
2022/12/05 02:25:07;;;;;;;47.22;21.33;;;3.20;99.90;;;;;;5086303;28;20216;-66
2022/12/05 02:28:07;;;;;;;37.03;19.10;;;3.20;99.90;;;;;;5110234;28;20581;-66
2022/12/05 02:30:40;;;;;;;50.33;20.08;;;3.10;99.90;;;;;;5097894;28;20280;-67
2022/12/05 02:33:18;;;;;;;45.13;21.23;;;3.20;99.90;;;;;;5082614;28;20183;-66
2022/12/05 02:35:54;;;;;;;59.05;23.58;;;3.10;99.90;;;;;;5087738;28;20195;-67
2022/12/05 02:38:29;;;;;;;53.67;23.08;;;3.00;99.90;;;;;;5071992;28;20191;-68
2022/12/05 02:41:07;;;;;;;51.22;21.85;;;3.00;99.90;;;;;;5074239;28;20233;-67
2022/12/05 02:43:41;;;;;;;53.10;22.45;;;3.00;99.90;;;;;;5092540;28;20537;-67
2022/12/05 02:46:14;;;;;;;53.05;23.40;;;3.00;99.90;;;;;;5091678;28;20191;-67
2022/12/05 02:48:44;;;;;;;56.45;22.75;;;3.10;99.90;;;;;;5093054;28;20191;-69
2022/12/05 02:51:16;;;;;;;96.40;25.40;;;3.10;99.90;;;;;;5077051;28;20196;-69
2022/12/05 02:53:46;;;;;;;71.30;24.50;;;3.00;99.90;;;;;;5076323;28;20196;-69
2022/12/05 02:56:15;;;;;;;72.63;24.88;;;3.00;99.90;;;;;;5097221;28;20272;-68
2022/12/05 02:58:50;;;;;;;96.60;25.55;;;3.00;99.90;;;;;;5104869;28;20202;-68
2022/12/05 03:01:21;;;;;;;79.65;24.35;;;3.00;99.90;;;;;;5076409;28;20188;-68
2022/12/05 03:03:49;;;;;;;81.78;25.00;;;3.00;99.90;;;;;;5074446;28;20204;-70
2022/12/05 03:06:21;;;;;;;73.60;24.63;;;3.00;99.90;;;;;;5075915;28;20192;-69
2022/12/05 03:08:55;;;;;;;68.30;25.58;;;3.00;99.90;;;;;;5077075;28;20188;-69
2022/12/05 03:11:24;;;;;;;75.00;25.88;;;3.00;99.90;;;;;;5083674;28;20192;-69
2022/12/05 03:13:55;;;;;;;71.53;25.45;;;3.00;99.90;;;;;;5076608;28;20200;-69
2022/12/05 03:16:29;;;;;;;71.38;26.73;;;3.10;99.90;;;;;;5095587;28;20184;-68
2022/12/05 03:19:01;;;;;;;68.88;23.85;;;3.10;99.90;;;;;;5085574;28;20199;-68
2022/12/05 03:21:34;;;;;;;74.40;24.65;;;3.10;99.90;;;;;;5083216;28;20188;-68
2022/12/05 03:24:06;;;;;;;67.95;24.60;;;3.20;99.90;;;;;;5076454;28;20366;-69
2022/12/05 03:26:46;;;;;;;64.97;23.50;;;3.20;99.90;;;;;;5083779;28;20297;-69
2022/12/05 03:29:25;;;;;;;65.57;24.35;;;3.20;99.90;;;;;;5059077;28;20190;-69
2022/12/05 03:32:03;;;;;;;70.00;25.58;;;3.10;99.90;;;;;;5093694;28;20206;-69
2022/12/05 03:34:42;;;;;;;81.60;25.08;;;3.10;99.90;;;;;;5079324;28;20192;-69
2022/12/05 03:37:18;;;;;;;82.45;26.92;;;3.20;99.90;;;;;;5083456;28;20241;-70
2022/12/05 03:39:50;;;;;;;80.03;30.92;;;3.30;99.90;;;;;;5092254;28;20238;-69
2022/12/05 03:42:27;;;;;;;70.50;26.38;;;3.30;99.90;;;;;;5095337;28;20217;-69
2022/12/05 03:45:00;;;;;;;67.75;26.13;;;3.30;99.90;;;;;;5077086;28;20212;-69
2022/12/05 03:47:37;;;;;;;59.15;25.17;;;3.40;99.90;;;;;;5075538;28;20222;-69
2022/12/05 03:50:10;;;;;;;51.40;23.00;;;3.40;99.90;;;;;;5074422;28;20203;-69
2022/12/05 03:52:43;;;;;;;59.30;25.05;;;3.50;99.90;;;;;;5075099;28;20188;-69
2022/12/05 03:55:13;;;;;;;65.45;25.67;;;3.50;99.90;;;;;;5088053;28;20244;-69
2022/12/05 03:57:45;;;;;;;78.88;26.05;;;3.50;99.90;;;;;;5063279;28;20226;-69
2022/12/05 04:00:17;;;;;;;67.10;23.85;;;3.50;99.90;;;;;;5099638;28;20642;-69
2022/12/05 04:02:53;;;;;;;64.22;23.65;;;3.50;99.90;;;;;;5094568;28;20280;-69
2022/12/05 04:05:24;;;;;;;54.90;21.75;;;3.50;99.90;;;;;;5080076;28;20195;-69
2022/12/05 04:07:56;;;;;;;63.78;21.63;;;3.50;99.90;;;;;;5094004;28;20510;-68
2022/12/05 04:10:28;;;;;;;53.38;21.80;;;3.50;99.90;;;;;;5092633;28;20195;-68
2022/12/05 04:13:16;;;;;;;51.67;22.35;;;3.50;99.90;;;;;;5083450;28;20211;-69
2022/12/05 04:18:50;;;;;;;54.55;20.65;;;3.60;99.90;;;;;;5031062;28;20211;-68
2022/12/05 04:21:37;;;;;;;56.03;22.20;;;3.60;99.90;;;;;;5074195;28;20191;-70
2022/12/05 04:27:05;;;;;;;54.35;20.65;;;3.60;99.90;;;;;;5078197;28;20700;-69
2022/12/05 04:29:39;;;;;;;55.70;21.30;;;3.60;99.90;;;;;;5100956;28;20642;-69
2022/12/05 04:32:10;;;;;;;51.50;20.58;;;3.50;99.90;;;;;;5094282;28;20199;-69
2022/12/05 04:34:42;;;;;;;56.83;20.38;;;3.60;99.90;;;;;;5094097;28;20188;-69
2022/12/05 04:37:13;;;;;;;53.53;20.05;;;3.60;99.90;;;;;;5072630;28;20236;-69
2022/12/05 04:39:47;;;;;;;51.08;20.05;;;3.60;99.90;;;;;;5103621;28;20187;-69
2022/12/05 04:42:18;;;;;;;58.72;20.90;;;3.60;99.90;;;;;;5111620;28;20191;-69
2022/12/05 04:44:50;;;;;;;52.95;20.63;;;3.60;99.90;;;;;;5078619;28;20611;-69
2022/12/05 04:47:22;;;;;;;56.20;21.65;;;3.60;99.90;;;;;;5076765;28;20192;-69
2022/12/05 04:49:52;;;;;;;49.38;19.38;;;3.60;99.90;;;;;;5096607;28;20190;-69
2022/12/05 04:52:21;;;;;;;44.83;20.08;;;3.60;99.90;;;;;;5113935;28;20191;-69
2022/12/05 04:54:53;;;;;;;48.67;20.67;;;3.50;99.90;;;;;;5073883;28;20188;-69
2022/12/05 04:57:24;;;;;;;66.90;21.60;;;3.40;99.90;;;;;;5075862;28;20192;-69
2022/12/05 04:59:53;;;;;;;67.18;22.25;;;3.40;99.90;;;;;;5076392;28;20267;-69
2022/12/05 05:02:27;;;;;;;61.10;22.50;;;3.30;99.90;;;;;;5072380;28;20532;-69
2022/12/05 05:04:59;;;;;;;57.33;21.73;;;3.40;99.90;;;;;;5073477;28;20199;-69
2022/12/05 05:07:27;;;;;;;53.75;21.58;;;3.40;99.90;;;;;;5064288;28;20276;-69
2022/12/05 05:09:56;;;;;;;54.83;22.88;;;3.30;99.90;;;;;;5112703;28;20673;-68
2022/12/05 05:12:24;;;;;;;61.72;22.77;;;3.30;99.90;;;;;;5091580;28;20202;-69
2022/12/05 05:14:52;;;;;;;49.00;19.00;;;3.30;99.90;;;;;;5088477;28;20190;-69
2022/12/05 05:17:20;;;;;;;60.80;21.70;;;3.30;99.90;;;;;;5096165;28;20202;-69
2022/12/05 05:19:48;;;;;;;47.47;21.17;;;3.40;99.90;;;;;;5073322;28;20203;-68
2022/12/05 05:22:17;;;;;;;64.70;21.63;;;3.40;99.90;;;;;;5072741;28;20223;-68
2022/12/05 05:24:45;;;;;;;67.72;22.20;;;3.50;99.90;;;;;;5083818;28;20211;-69
2022/12/05 05:27:12;;;;;;;53.15;21.42;;;3.50;99.90;;;;;;5091139;28;20227;-68
2022/12/05 05:29:40;;;;;;;63.75;21.63;;;3.60;99.90;;;;;;5090805;28;20191;-68
2022/12/05 05:32:08;;;;;;;55.15;22.92;;;3.60;99.90;;;;;;5092629;28;20203;-68
2022/12/05 05:34:36;;;;;;;48.47;20.50;;;3.60;99.90;;;;;;5081958;28;20686;-68
2022/12/05 05:37:04;;;;;;;47.38;20.73;;;3.60;99.90;;;;;;5086221;28;20653;-68
2022/12/05 05:39:33;;;;;;;59.03;21.05;;;3.60;99.90;;;;;;5076304;28;20214;-69
2022/12/05 05:42:01;;;;;;;59.55;20.75;;;3.60;99.90;;;;;;5062621;28;20701;-69
2022/12/05 05:44:29;;;;;;;52.28;20.70;;;3.60;99.90;;;;;;5089264;28;20271;-67
2022/12/05 05:46:57;;;;;;;55.75;20.77;;;3.60;99.90;;;;;;5080614;28;20207;-70
2022/12/05 05:49:25;;;;;;;45.25;21.13;;;3.60;99.90;;;;;;5102564;28;20192;-69
2022/12/05 05:51:53;;;;;;;49.50;21.20;;;3.60;99.90;;;;;;5082767;28;20343;-69
2022/12/05 05:54:21;;;;;;;48.65;20.52;;;3.60;99.90;;;;;;5072939;28;20188;-69
2022/12/05 05:56:50;;;;;;;63.17;21.60;;;3.60;99.90;;;;;;5073745;28;20196;-69
2022/12/05 05:59:18;;;;;;;55.55;20.77;;;3.60;99.90;;;;;;5064021;28;20230;-69
2022/12/05 06:01:46;;;;;;;54.22;21.92;;;3.60;99.90;;;;;;5074401;28;20208;-69
2022/12/05 06:04:13;;;;;;;47.28;21.25;;;3.70;99.90;;;;;;5081497;28;20580;-69
2022/12/05 06:06:41;;;;;;;62.47;23.80;;;3.70;99.90;;;;;;5080340;28;20188;-69
2022/12/05 06:09:10;;;;;;;47.83;21.17;;;3.60;99.90;;;;;;5087856;28;20203;-70
2022/12/05 06:11:38;;;;;;;53.58;21.35;;;3.60;99.90;;;;;;5070037;28;20563;-69
2022/12/05 06:14:07;;;;;;;50.47;21.48;;;3.60;99.90;;;;;;5098132;28;20539;-69
2022/12/05 06:16:35;;;;;;;49.70;20.73;;;3.60;99.90;;;;;;5092429;28;20206;-69
2022/12/05 06:19:03;;;;;;;50.60;20.35;;;3.70;99.90;;;;;;5112401;28;20206;-69
2022/12/05 06:21:30;;;;;;;44.65;21.15;;;3.60;99.90;;;;;;5109526;28;20201;-70
2022/12/05 06:23:59;;;;;;;52.65;21.77;;;3.70;99.90;;;;;;5087825;28;20668;-69
2022/12/05 06:26:26;;;;;;;48.05;19.65;;;3.70;99.90;;;;;;5080677;28;20223;-69
2022/12/05 06:28:54;;;;;;;46.35;21.85;;;3.70;99.90;;;;;;5079403;28;20202;-69
2022/12/05 06:31:25;;;;;;;45.60;20.10;;;3.70;99.90;;;;;;5066988;28;20569;-69
2022/12/05 06:33:53;;;;;;;43.03;19.30;;;3.80;99.90;;;;;;5093157;28;20240;-68
2022/12/05 06:36:22;;;;;;;46.63;20.70;;;3.80;99.90;;;;;;5091743;28;20575;-68
2022/12/05 06:38:50;;;;;;;45.75;22.08;;;3.90;99.90;;;;;;5090670;28;20197;-69
2022/12/05 06:41:20;;;;;;;46.88;22.92;;;3.90;99.90;;;;;;5088697;28;20203;-69
2022/12/05 06:43:48;;;;;;;52.40;21.35;;;3.90;99.90;;;;;;5092742;28;20203;-68
2022/12/05 06:46:16;;;;;;;51.78;21.35;;;3.90;99.90;;;;;;5092550;28;20215;-69
2022/12/05 06:48:45;;;;;;;48.40;22.05;;;4.00;99.90;;;;;;5092412;28;20199;-68
2022/12/05 06:51:16;;;;;;;50.72;22.15;;;3.90;99.90;;;;;;5078240;28;20204;-69
2022/12/05 06:53:44;;;;;;;51.30;24.25;;;3.90;99.90;;;;;;5073306;28;20184;-69
2022/12/05 06:56:14;;;;;;;50.70;23.50;;;3.90;99.90;;;;;;5073092;28;20254;-69
2022/12/05 06:58:42;;;;;;;40.15;20.08;;;3.80;99.90;;;;;;5072667;28;20211;-68
2022/12/05 07:03:58;;;;;;;39.55;19.85;;;3.90;99.90;;;;;;5077648;28;20207;-68
2022/12/05 07:06:26;;;;;;;45.55;21.08;;;4.00;99.90;;;;;;5078111;28;20230;-68
2022/12/05 07:08:55;;;;;;;42.42;20.10;;;4.00;99.90;;;;;;5071406;28;20208;-67
2022/12/05 07:11:23;;;;;;;44.33;20.40;;;3.90;99.90;;;;;;5071521;28;20416;-67
2022/12/05 07:13:51;;;;;;;46.30;23.70;;;3.90;99.90;;;;;;5071573;28;20674;-67
2022/12/05 07:16:18;;;;;;;45.72;20.80;;;4.00;99.90;;;;;;5071901;28;20200;-68
2022/12/05 07:18:46;;;;;;;49.53;22.15;;;3.90;99.90;;;;;;5072204;28;20234;-68
2022/12/05 07:21:16;;;;;;;40.55;20.00;;;3.90;99.90;;;;;;5071880;28;20685;-67
2022/12/05 07:23:46;;;;;;;40.33;20.85;;;3.80;99.90;;;;;;5071610;28;20235;-68
2022/12/05 07:26:17;;;;;;;34.50;19.48;;;3.80;99.90;;;;;;5071641;28;20246;-68
2022/12/05 07:28:45;;;;;;;50.88;22.83;;;3.80;99.90;;;;;;5072636;28;20192;-68
2022/12/05 07:31:16;;;;;;;42.55;20.45;;;3.90;99.90;;;;;;5071945;28;20199;-67
2022/12/05 07:33:44;;;;;;;35.80;20.25;;;3.90;99.90;;;;;;5071957;28;20215;-67
2022/12/05 07:36:14;;;;;;;37.33;20.42;;;3.90;99.90;;;;;;5073907;28;20532;-67
2022/12/05 07:38:44;;;;;;;40.20;21.50;;;3.90;99.90;;;;;;5088511;28;20200;-66
2022/12/05 07:41:15;;;;;;;50.78;24.88;;;3.80;99.90;;;;;;5076432;28;20203;-68
2022/12/05 07:43:43;;;;;;;45.97;22.45;;;3.80;99.90;;;;;;5090807;28;20650;-66
2022/12/05 07:46:11;;;;;;;42.55;21.38;;;3.80;99.90;;;;;;5093557;28;20223;-66
2022/12/05 07:48:39;;;;;;;43.42;21.90;;;3.80;99.90;;;;;;5111832;28;20197;-67
2022/12/05 07:51:09;;;;;;;45.75;21.60;;;3.80;99.90;;;;;;5086580;28;20574;-67
2022/12/05 07:53:40;;;;;;;49.70;23.65;;;3.80;99.90;;;;;;5087057;28;20199;-67
2022/12/05 07:56:13;;;;;;;44.58;22.58;;;3.90;99.90;;;;;;5102945;28;20190;-68
2022/12/05 07:58:41;;;;;;;39.45;20.75;;;3.90;99.90;;;;;;5102751;28;20655;-68
2022/12/05 08:01:10;;;;;;;52.10;22.02;;;3.90;99.90;;;;;;5080663;28;20192;-67
2022/12/05 08:03:38;;;;;;;43.92;23.55;;;3.80;99.90;;;;;;5083061;28;20207;-67
2022/12/05 08:06:08;;;;;;;72.25;25.40;;;3.90;99.90;;;;;;5086567;28;20226;-67
2022/12/05 08:08:36;;;;;;;37.50;21.63;;;4.00;99.90;;;;;;5094332;28;20184;-67
2022/12/05 08:11:06;;;;;;;43.97;22.67;;;3.90;99.90;;;;;;5089620;28;20218;-67
2022/12/05 08:13:35;;;;;;;50.25;22.33;;;4.10;99.90;;;;;;5087790;28;20555;-67
2022/12/05 08:16:04;;;;;;;44.92;20.88;;;4.00;99.90;;;;;;5090350;28;20190;-68
2022/12/05 08:18:32;;;;;;;41.53;20.80;;;4.10;99.90;;;;;;5111084;28;20214;-67
2022/12/05 08:21:02;;;;;;;42.20;21.90;;;4.10;99.90;;;;;;5114219;28;20206;-68
2022/12/05 08:23:30;;;;;;;39.15;19.83;;;4.20;99.90;;;;;;5095070;28;20227;-67
2022/12/05 08:26:02;;;;;;;45.58;20.45;;;4.00;99.90;;;;;;5083992;28;20220;-67
2022/12/05 08:28:31;;;;;;;37.92;21.67;;;4.00;99.90;;;;;;5083667;28;20207;-67
2022/12/05 08:31:05;;;;;;;46.70;21.05;;;4.00;99.90;;;;;;5078655;28;20593;-67
2022/12/05 08:33:33;;;;;;;37.90;20.17;;;4.10;99.90;;;;;;5087042;28;20807;-67
2022/12/05 08:36:02;;;;;;;36.25;19.85;;;4.00;99.90;;;;;;5086021;28;20200;-67
2022/12/05 08:38:30;;;;;;;40.55;20.70;;;4.00;99.90;;;;;;5091720;28;20566;-65
2022/12/05 08:41:00;;;;;;;35.05;19.95;;;4.00;99.90;;;;;;5094122;28;20199;-67
2022/12/05 08:43:28;;;;;;;38.05;20.60;;;4.00;99.90;;;;;;5067219;28;20200;-67
2022/12/05 08:45:56;;;;;;;36.67;20.25;;;4.00;99.90;;;;;;5081871;28;20216;-67
2022/12/05 08:48:26;;;;;;;44.10;20.80;;;4.00;99.90;;;;;;5099818;28;20192;-66
2022/12/05 08:50:55;;;;;;;36.85;20.25;;;4.10;99.90;;;;;;5073741;28;20192;-66
2022/12/05 08:53:23;;;;;;;32.83;19.65;;;4.10;99.90;;;;;;5077399;28;20196;-66
2022/12/05 08:55:51;;;;;;;35.67;20.30;;;4.10;99.90;;;;;;5087503;28;20196;-66
2022/12/05 08:58:19;;;;;;;35.45;19.90;;;4.20;99.90;;;;;;5088500;28;20198;-66
2022/12/05 09:00:46;;;;;;;32.25;18.98;;;4.20;99.90;;;;;;5077698;28;20214;-67
2022/12/05 09:03:14;;;;;;;30.45;19.25;;;4.20;99.90;;;;;;5104948;28;20676;-66
2022/12/05 09:05:44;;;;;;;35.70;20.15;;;4.20;99.90;;;;;;5092200;28;20215;-66
2022/12/05 09:08:12;;;;;;;41.20;18.35;;;4.20;99.90;;;;;;5094032;28;20211;-66
2022/12/05 09:10:39;;;;;;;32.25;18.42;;;4.20;99.90;;;;;;5098226;28;20199;-67
2022/12/05 09:13:07;;;;;;;35.88;20.10;;;4.30;99.90;;;;;;5080460;28;20535;-67
2022/12/05 09:15:38;;;;;;;30.20;17.92;;;4.40;99.90;;;;;;5077985;28;20666;-67
2022/12/05 09:18:06;;;;;;;35.03;19.33;;;4.50;99.90;;;;;;5109149;28;20686;-68
2022/12/05 09:20:34;;;;;;;35.92;19.38;;;4.60;99.90;;;;;;5113556;28;20669;-66
2022/12/05 09:23:03;;;;;;;30.35;17.40;;;4.50;99.90;;;;;;5097333;28;20226;-66
2022/12/05 09:25:31;;;;;;;33.13;18.55;;;4.50;99.90;;;;;;5085297;28;20227;-66
2022/12/05 09:27:59;;;;;;;30.65;18.45;;;4.50;99.90;;;;;;5088272;28;20252;-66
2022/12/05 09:30:27;;;;;;;32.35;17.85;;;4.60;99.90;;;;;;5077084;28;20212;-65
2022/12/05 09:32:55;;;;;;;28.67;17.30;;;4.60;99.90;;;;;;5075777;28;20191;-66
2022/12/05 09:35:22;;;;;;;30.50;18.42;;;4.50;99.90;;;;;;5074980;28;20199;-66
2022/12/05 09:37:50;;;;;;;31.85;18.90;;;4.50;99.90;;;;;;5081470;28;20219;-66
2022/12/05 09:40:20;;;;;;;30.08;17.52;;;4.70;99.90;;;;;;5080757;28;20196;-66
2022/12/05 09:42:58;;;;;;;33.63;19.48;;;4.80;99.90;;;;;;5078037;28;20200;-66
2022/12/05 09:45:30;;;;;;;29.00;18.30;;;4.90;99.90;;;;;;5073178;28;20188;-66
2022/12/05 09:48:06;;;;;;;31.90;18.83;;;4.90;99.90;;;;;;5073345;28;20222;-66
2022/12/05 09:50:41;;;;;;;29.92;17.67;;;4.90;99.90;;;;;;5073629;28;20192;-66
2022/12/05 09:53:27;;;;;;;27.92;17.38;;;4.80;99.90;;;;;;5079311;28;20220;-67
2022/12/05 09:56:02;;;;;;;33.25;20.60;;;5.00;99.90;;;;;;5085024;28;20240;-67
2022/12/05 09:58:40;;;;;;;32.25;19.15;;;5.10;99.90;;;;;;5083798;28;20195;-66
2022/12/05 10:01:24;;;;;;;34.95;19.98;;;5.00;99.90;;;;;;5074907;28;20195;-65
2022/12/05 10:04:07;;;;;;;32.35;19.67;;;4.80;99.90;;;;;;5073481;28;20631;-66
2022/12/05 10:06:40;;;;;;;31.65;16.85;;;4.70;99.90;;;;;;5073937;28;20701;-65
2022/12/05 10:09:24;;;;;;;32.30;20.77;;;4.70;99.90;;;;;;5082146;28;20187;-66
2022/12/05 10:12:03;;;;;;;37.78;18.67;;;4.70;99.90;;;;;;5072941;28;20654;-66
2022/12/05 10:14:40;;;;;;;35.67;19.77;;;4.70;99.90;;;;;;5073023;28;20188;-65
2022/12/05 10:17:16;;;;;;;29.58;17.75;;;4.70;99.90;;;;;;5083838;28;20183;-66
2022/12/05 10:19:47;;;;;;;32.97;18.90;;;4.70;99.90;;;;;;5093057;28;20198;-66
2022/12/05 10:22:19;;;;;;;36.58;19.92;;;4.70;99.90;;;;;;5083702;28;20215;-65
2022/12/05 10:24:51;;;;;;;35.78;20.67;;;4.70;99.90;;;;;;5072624;28;20541;-65
2022/12/05 10:27:27;;;;;;;30.15;18.58;;;4.70;99.90;;;;;;5078713;28;20234;-66
2022/12/05 10:30:01;;;;;;;30.83;17.60;;;4.80;99.90;;;;;;5092592;28;20224;-66
2022/12/05 10:32:35;;;;;;;34.33;18.88;;;4.80;99.90;;;;;;5085102;28;20548;-66
2022/12/05 10:35:15;;;;;;;31.40;18.98;;;4.90;99.90;;;;;;5072020;28;20187;-66
2022/12/05 10:37:46;;;;;;;36.53;21.33;;;4.80;99.90;;;;;;5078749;28;20244;-65
2022/12/05 10:40:15;;;;;;;35.28;20.20;;;4.80;99.90;;;;;;5090553;28;20285;-66
2022/12/05 10:42:45;;;;;;;28.60;18.25;;;4.80;99.90;;;;;;5092456;28;20199;-66
2022/12/05 10:45:18;;;;;;;31.85;19.00;;;4.80;99.90;;;;;;5092400;28;20200;-65
2022/12/05 10:47:47;;;;;;;30.10;18.38;;;4.80;99.90;;;;;;5076134;28;20253;-68
2022/12/05 10:50:23;;;;;;;27.85;16.33;;;4.80;99.90;;;;;;5073248;28;20207;-67
2022/12/05 10:52:53;;;;;;;30.17;19.30;;;4.80;99.90;;;;;;5072518;28;20199;-67
2022/12/05 10:55:21;;;;;;;29.63;18.65;;;4.90;99.90;;;;;;5073061;28;20285;-67
2022/12/05 10:58:08;;;;;;;29.30;17.80;;;5.00;99.90;;;;;;5080676;28;20650;-67
2022/12/05 11:00:36;;;;;;;30.88;19.60;;;5.10;99.90;;;;;;5083474;28;20214;-67
2022/12/05 11:03:05;;;;;;;28.88;18.10;;;5.10;99.90;;;;;;5090346;28;20206;-67
2022/12/05 11:05:35;;;;;;;33.67;18.63;;;5.10;99.90;;;;;;5083376;28;20211;-68
2022/12/05 11:08:02;;;;;;;30.05;18.17;;;5.20;99.90;;;;;;5070205;28;20220;-66
2022/12/05 11:10:33;;;;;;;31.73;17.05;;;5.30;99.90;;;;;;5077456;28;20204;-67
2022/12/05 11:13:15;;;;;;;30.42;17.17;;;5.30;99.90;;;;;;5081717;28;20191;-68
2022/12/05 11:15:46;;;;;;;26.45;16.52;;;5.40;99.90;;;;;;5088963;28;20200;-67
2022/12/05 11:18:28;;;;;;;29.48;15.55;;;5.40;99.90;;;;;;5096048;28;20184;-68
2022/12/05 11:21:07;;;;;;;30.33;17.05;;;5.40;99.90;;;;;;5087473;28;20210;-67
2022/12/05 11:23:35;;;;;;;27.25;16.30;;;5.40;99.90;;;;;;5078754;28;20608;-68
2022/12/05 11:26:04;;;;;;;27.77;16.52;;;5.50;99.90;;;;;;5084891;28;20235;-67
2022/12/05 11:28:35;;;;;;;28.50;17.17;;;5.60;99.90;;;;;;5076986;28;20230;-67
2022/12/05 11:31:07;;;;;;;26.58;16.90;;;5.70;99.90;;;;;;5091803;28;20195;-67
2022/12/05 11:33:36;;;;;;;25.77;15.75;;;5.80;99.90;;;;;;5088073;28;20534;-65
2022/12/05 11:36:11;;;;;;;22.63;14.38;;;5.70;99.90;;;;;;5092578;28;20191;-66
2022/12/05 11:38:41;;;;;;;24.23;15.50;;;5.60;99.90;;;;;;5092710;28;20202;-66
2022/12/05 11:41:32;;;;;;;23.73;14.57;;;5.70;99.90;;;;;;5092000;28;20203;-66
2022/12/05 11:44:18;;;;;;;22.92;14.77;;;5.70;99.90;;;;;;5082593;28;20203;-66
2022/12/05 11:46:58;;;;;;;19.88;13.27;;;5.70;99.90;;;;;;5067227;28;20187;-66
2022/12/05 11:49:43;;;;;;;22.83;15.05;;;5.70;99.90;;;;;;5088527;28;20226;-66
2022/12/05 11:52:23;;;;;;;24.25;13.77;;;5.80;99.90;;;;;;5084249;28;20693;-67
2022/12/05 11:55:10;;;;;;;18.90;12.43;;;5.80;99.90;;;;;;5093355;28;20210;-67
2022/12/05 11:57:51;;;;;;;22.13;13.95;;;5.70;99.90;;;;;;5093141;28;20539;-68
2022/12/05 12:00:24;;;;;;;22.30;13.38;;;5.80;99.90;;;;;;5084625;28;20528;-67
2022/12/05 12:03:19;;;;;;;18.98;13.35;;;5.80;99.90;;;;;;5081835;28;20198;-67
2022/12/05 12:05:58;;;;;;;19.35;14.27;;;5.90;99.90;;;;;;5078948;28;20651;-67
2022/12/05 12:08:28;;;;;;;19.27;12.75;;;5.90;99.90;;;;;;5079284;28;20214;-67
2022/12/05 12:11:05;;;;;;;20.65;13.85;;;5.90;99.90;;;;;;5092188;28;20196;-67
2022/12/05 12:13:52;;;;;;;16.60;12.73;;;6.00;99.90;;;;;;5088675;28;20184;-67
2022/12/05 12:16:33;;;;;;;16.52;12.05;;;6.00;99.90;;;;;;5073253;28;20650;-67
2022/12/05 12:19:29;;;;;;;19.75;12.80;;;6.10;99.90;;;;;;5075585;28;20180;-67
2022/12/05 12:22:15;;;;;;;15.25;12.05;;;6.00;99.90;;;;;;5083404;28;20227;-67
2022/12/05 12:25:01;;;;;;;21.08;12.48;;;6.00;99.90;;;;;;5081270;28;20191;-67
2022/12/05 12:27:41;;;;;;;20.13;11.25;;;6.10;99.90;;;;;;5081958;28;20199;-67
2022/12/05 12:30:15;;;;;;;21.00;13.68;;;6.10;99.90;;;;;;5081319;28;20180;-67
2022/12/05 12:32:58;;;;;;;24.35;12.75;;;6.00;99.90;;;;;;5084164;28;20589;-67
2022/12/05 12:35:31;;;;;;;19.23;12.10;;;6.10;99.90;;;;;;5080607;28;20635;-66
2022/12/05 12:38:15;;;;;;;22.15;13.35;;;6.10;99.90;;;;;;5082470;28;20583;-67
2022/12/05 12:40:49;;;;;;;19.38;14.18;;;6.10;99.90;;;;;;5087779;28;20251;-67
2022/12/05 12:43:28;;;;;;;17.15;11.85;;;6.30;99.90;;;;;;5082146;28;20200;-66
2022/12/05 12:46:11;;;;;;;12.75;9.90;;;6.30;99.90;;;;;;5093604;28;20207;-65
2022/12/05 12:49:03;;;;;;;19.25;10.52;;;6.30;99.90;;;;;;5078568;28;20754;-66
2022/12/05 12:51:32;;;;;;;21.00;12.90;;;6.20;99.90;;;;;;5077693;28;20196;-66
2022/12/05 12:54:16;;;;;;;22.55;13.10;;;6.20;99.90;;;;;;5074849;28;20647;-66
2022/12/05 12:56:56;;;;;;;15.20;12.00;;;6.20;99.90;;;;;;5074201;28;20188;-66
2022/12/05 12:59:42;;;;;;;14.65;11.50;;;6.30;99.90;;;;;;5085956;28;20183;-66
2022/12/05 13:02:17;;;;;;;11.48;8.40;;;6.30;99.90;;;;;;5081055;28;20226;-65
2022/12/05 13:04:52;;;;;;;11.38;8.40;;;6.30;99.90;;;;;;5075615;28;20191;-65
2022/12/05 13:07:26;;;;;;;11.55;9.00;;;6.30;99.90;;;;;;5086899;28;20637;-65
2022/12/05 13:09:59;;;;;;;12.15;9.18;;;6.50;99.90;;;;;;5089998;28;20195;-65
2022/12/05 13:12:33;;;;;;;12.90;8.75;;;6.50;99.90;;;;;;5073900;28;20184;-66